sensor_id;sensor_type;location;lat;lon;timestamp;pressure;altitude;pressure_sealevel;temperature;humidity
44103;BME280;29769;42.178;24.742;2023-04-07T00:01:04;99452.13;;;5.63;62.49
44103;BME280;29769;42.178;24.742;2023-04-07T00:03:49;99453.84;;;5.65;61.10
44103;BME280;29769;42.178;24.742;2023-04-07T00:06:34;99454.72;;;5.60;62.31
44103;BME280;29769;42.178;24.742;2023-04-07T00:09:18;99457.31;;;5.48;63.76
44103;BME280;29769;42.178;24.742;2023-04-07T00:12:03;99453.84;;;5.59;60.35
44103;BME280;29769;42.178;24.742;2023-04-07T00:14:48;99462.53;;;5.51;63.18
44103;BME280;29769;42.178;24.742;2023-04-07T00:17:32;99448.59;;;5.41;63.77
44103;BME280;29769;42.178;24.742;2023-04-07T00:20:17;99450.34;;;5.34;64.77
44103;BME280;29769;42.178;24.742;2023-04-07T00:23:02;99452.94;;;5.25;64.92
44103;BME280;29769;42.178;24.742;2023-04-07T00:25:46;99456.41;;;5.24;65.46
44103;BME280;29769;42.178;24.742;2023-04-07T00:28:31;99454.66;;;5.19;65.71
44103;BME280;29769;42.178;24.742;2023-04-07T00:31:16;99461.59;;;5.18;65.83
44103;BME280;29769;42.178;24.742;2023-04-07T00:34:01;99460.69;;;5.00;68.25
44103;BME280;29769;42.178;24.742;2023-04-07T00:36:45;99457.19;;;4.90;68.85
44103;BME280;29769;42.178;24.742;2023-04-07T00:39:35;99461.56;;;5.03;66.44
44103;BME280;29769;42.178;24.742;2023-04-07T00:42:20;99452.88;;;4.95;67.27
44103;BME280;29769;42.178;24.742;2023-04-07T00:45:05;99452.00;;;5.02;65.55
44103;BME280;29769;42.178;24.742;2023-04-07T00:47:50;99465.91;;;4.98;66.11
44103;BME280;29769;42.178;24.742;2023-04-07T00:50:35;99462.41;;;4.96;66.62
44103;BME280;29769;42.178;24.742;2023-04-07T00:53:19;99466.75;;;4.94;67.21
44103;BME280;29769;42.178;24.742;2023-04-07T00:56:04;99450.19;;;4.83;67.70
44103;BME280;29769;42.178;24.742;2023-04-07T00:58:49;99465.00;;;4.90;66.62
44103;BME280;29769;42.178;24.742;2023-04-07T01:04:37;99450.28;;;5.00;66.30
44103;BME280;29769;42.178;24.742;2023-04-07T01:07:33;99452.88;;;5.00;66.99
44103;BME280;29769;42.178;24.742;2023-04-07T01:10:27;99451.09;;;4.89;67.89
44103;BME280;29769;42.178;24.742;2023-04-07T01:13:26;99449.31;;;4.82;69.12
44103;BME280;29769;42.178;24.742;2023-04-07T01:16:22;99432.78;;;4.74;68.25
44103;BME280;29769;42.178;24.742;2023-04-07T01:21:57;99438.84;;;4.67;70.44
44103;BME280;29769;42.178;24.742;2023-04-07T01:30:45;99449.28;;;4.70;69.44
44103;BME280;29769;42.178;24.742;2023-04-07T01:33:31;99450.97;;;4.64;70.19
44103;BME280;29769;42.178;24.742;2023-04-07T01:36:15;99459.63;;;4.60;70.68
44103;BME280;29769;42.178;24.742;2023-04-07T01:39:01;99461.38;;;4.61;69.63
44103;BME280;29769;42.178;24.742;2023-04-07T01:41:46;99470.06;;;4.57;70.98
44103;BME280;29769;42.178;24.742;2023-04-07T01:44:31;99470.06;;;4.57;70.49
44103;BME280;29769;42.178;24.742;2023-04-07T01:47:16;99473.53;;;4.54;72.12
44103;BME280;29769;42.178;24.742;2023-04-07T01:50:02;99463.94;;;4.55;72.11
44103;BME280;29769;42.178;24.742;2023-04-07T01:52:50;99477.81;;;4.51;72.75
44103;BME280;29769;42.178;24.742;2023-04-07T01:55:36;99472.59;;;4.46;73.79
44103;BME280;29769;42.178;24.742;2023-04-07T01:58:26;99461.31;;;4.44;74.10
44103;BME280;29769;42.178;24.742;2023-04-07T02:01:12;99463.91;;;4.42;74.79
44103;BME280;29769;42.178;24.742;2023-04-07T02:04:01;99470.81;;;4.37;75.07
44103;BME280;29769;42.178;24.742;2023-04-07T02:06:49;99465.63;;;4.39;73.31
44103;BME280;29769;42.178;24.742;2023-04-07T02:09:41;99470.81;;;4.37;73.68
44103;BME280;29769;42.178;24.742;2023-04-07T02:12:27;99466.50;;;4.39;72.86
44103;BME280;29769;42.178;24.742;2023-04-07T02:15:22;99468.25;;;4.40;72.13
44103;BME280;29769;42.178;24.742;2023-04-07T02:18:08;99470.84;;;4.39;72.95
44103;BME280;29769;42.178;24.742;2023-04-07T02:20:55;99468.22;;;4.37;72.64
44103;BME280;29769;42.178;24.742;2023-04-07T02:23:40;99452.59;;;4.36;72.38
44103;BME280;29769;42.178;24.742;2023-04-07T02:26:25;99465.59;;;4.37;71.08
44103;BME280;29769;42.178;24.742;2023-04-07T02:29:10;99470.81;;;4.34;71.91
44103;BME280;29769;42.178;24.742;2023-04-07T02:31:55;99465.59;;;4.31;73.12
44103;BME280;29769;42.178;24.742;2023-04-07T02:34:39;99467.28;;;4.26;72.94
44103;BME280;29769;42.178;24.742;2023-04-07T02:37:24;99471.63;;;4.29;72.32
44103;BME280;29769;42.178;24.742;2023-04-07T02:40:09;99469.94;;;4.35;70.75
44103;BME280;29769;42.178;24.742;2023-04-07T02:42:54;99470.81;;;4.34;70.44
44103;BME280;29769;42.178;24.742;2023-04-07T02:45:40;99469.91;;;4.26;71.86
44103;BME280;29769;42.178;24.742;2023-04-07T02:48:25;99462.97;;;4.27;71.29
44103;BME280;29769;42.178;24.742;2023-04-07T02:51:10;99481.16;;;4.28;71.10
44103;BME280;29769;42.178;24.742;2023-04-07T02:53:54;99480.28;;;4.22;72.65
44103;BME280;29769;42.178;24.742;2023-04-07T02:56:39;99477.69;;;4.22;72.52
44103;BME280;29769;42.178;24.742;2023-04-07T02:59:23;99479.41;;;4.21;71.32
44103;BME280;29769;42.178;24.742;2023-04-07T03:02:08;99476.81;;;4.21;72.19
44103;BME280;29769;42.178;24.742;2023-04-07T03:04:54;99481.16;;;4.25;71.56
44103;BME280;29769;42.178;24.742;2023-04-07T03:07:43;99485.50;;;4.28;71.12
44103;BME280;29769;42.178;24.742;2023-04-07T03:10:28;99482.03;;;4.27;71.88
44103;BME280;29769;42.178;24.742;2023-04-07T03:13:13;99489.03;;;4.37;69.82
44103;BME280;29769;42.178;24.742;2023-04-07T03:16:00;99474.28;;;4.35;70.08
44103;BME280;29769;42.178;24.742;2023-04-07T03:18:50;99488.06;;;4.23;72.73
44103;BME280;29769;42.178;24.742;2023-04-07T03:21:36;99477.66;;;4.20;72.52
44103;BME280;29769;42.178;24.742;2023-04-07T03:24:21;99486.34;;;4.22;72.58
44103;BME280;29769;42.178;24.742;2023-04-07T03:27:06;99479.41;;;4.21;73.60
44103;BME280;29769;42.178;24.742;2023-04-07T03:30:01;99494.97;;;4.18;73.85
44103;BME280;29769;42.178;24.742;2023-04-07T03:32:47;99489.78;;;4.18;74.71
44103;BME280;29769;42.178;24.742;2023-04-07T03:35:32;99486.25;;;4.10;75.70
44103;BME280;29769;42.178;24.742;2023-04-07T03:38:16;99494.03;;;4.06;77.99
44103;BME280;29769;42.178;24.742;2023-04-07T03:41:01;99496.56;;;3.96;79.31
44103;BME280;29769;42.178;24.742;2023-04-07T03:43:46;99498.34;;;3.99;77.18
44103;BME280;29769;42.178;24.742;2023-04-07T03:46:31;99512.22;;;4.01;78.32
44103;BME280;29769;42.178;24.742;2023-04-07T03:49:16;99513.06;;;3.98;77.27
44103;BME280;29769;42.178;24.742;2023-04-07T03:52:01;99514.81;;;4.01;78.73
44103;BME280;29769;42.178;24.742;2023-04-07T03:54:46;99513.97;;;4.02;77.51
44103;BME280;29769;42.178;24.742;2023-04-07T03:57:31;99516.63;;;4.08;76.68
44103;BME280;29769;42.178;24.742;2023-04-07T04:00:16;99515.66;;;3.97;81.20
44103;BME280;29769;42.178;24.742;2023-04-07T04:03:05;99517.34;;;3.92;80.77
44103;BME280;29769;42.178;24.742;2023-04-07T04:05:52;99515.66;;;3.97;78.83
44103;BME280;29769;42.178;24.742;2023-04-07T04:08:42;99509.59;;;3.98;79.29
44103;BME280;29769;42.178;24.742;2023-04-07T04:11:27;99524.34;;;3.99;79.64
44103;BME280;29769;42.178;24.742;2023-04-07T04:14:16;99530.44;;;4.01;80.22
44103;BME280;29769;42.178;24.742;2023-04-07T04:17:07;99520.84;;;3.97;83.57
44103;BME280;29769;42.178;24.742;2023-04-07T04:19:57;99529.41;;;3.84;86.07
44103;BME280;29769;42.178;24.742;2023-04-07T04:22:56;99526.78;;;3.79;90.89
44103;BME280;29769;42.178;24.742;2023-04-07T04:25:41;99538.06;;;3.80;89.21
44103;BME280;29769;42.178;24.742;2023-04-07T04:28:29;99539.03;;;3.92;86.15
44103;BME280;29769;42.178;24.742;2023-04-07T04:31:14;99540.00;;;4.03;82.72
44103;BME280;29769;42.178;24.742;2023-04-07T04:34:01;99547.03;;;4.15;82.04
44103;BME280;29769;42.178;24.742;2023-04-07T04:36:50;99553.09;;;4.14;86.03
44103;BME280;29769;42.178;24.742;2023-04-07T04:39:36;99549.66;;;4.18;85.45
44103;BME280;29769;42.178;24.742;2023-04-07T04:42:21;99552.28;;;4.21;86.37
44103;BME280;29769;42.178;24.742;2023-04-07T04:45:07;99547.09;;;4.21;85.24
44103;BME280;29769;42.178;24.742;2023-04-07T04:47:52;99548.81;;;4.21;87.39
44103;BME280;29769;42.178;24.742;2023-04-07T04:50:36;99566.16;;;4.20;89.06
44103;BME280;29769;42.178;24.742;2023-04-07T04:53:27;99569.66;;;4.22;94.06
44103;BME280;29769;42.178;24.742;2023-04-07T04:56:18;99565.31;;;4.24;95.42
44103;BME280;29769;42.178;24.742;2023-04-07T04:59:04;99565.38;;;4.30;97.38
44103;BME280;29769;42.178;24.742;2023-04-07T05:02:09;99563.66;;;4.32;100.00
44103;BME280;29769;42.178;24.742;2023-04-07T05:04:55;99561.94;;;4.37;99.78
44103;BME280;29769;42.178;24.742;2023-04-07T05:07:43;99568.97;;;4.47;96.92
44103;BME280;29769;42.178;24.742;2023-04-07T05:10:31;99569.09;;;4.63;91.44
44103;BME280;29769;42.178;24.742;2023-04-07T05:13:15;99575.22;;;4.74;92.71
44103;BME280;29769;42.178;24.742;2023-04-07T05:16:00;99585.75;;;4.86;90.44
44103;BME280;29769;42.178;24.742;2023-04-07T05:18:45;99574.53;;;5.02;88.38
44103;BME280;29769;42.178;24.742;2023-04-07T05:21:29;99580.69;;;5.22;83.71
44103;BME280;29769;42.178;24.742;2023-04-07T05:24:19;99588.59;;;5.42;88.28
44103;BME280;29769;42.178;24.742;2023-04-07T05:27:09;99588.66;;;5.65;88.77
44103;BME280;29769;42.178;24.742;2023-04-07T05:29:55;99589.66;;;5.97;85.91
44103;BME280;29769;42.178;24.742;2023-04-07T05:32:44;99594.88;;;6.37;85.36
44103;BME280;29769;42.178;24.742;2023-04-07T05:35:39;99590.50;;;6.74;78.92
44103;BME280;29769;42.178;24.742;2023-04-07T05:38:24;99579.16;;;6.82;70.08
44103;BME280;29769;42.178;24.742;2023-04-07T05:41:13;99577.44;;;6.81;63.99
44103;BME280;29769;42.178;24.742;2023-04-07T05:43:57;99584.38;;;7.03;64.47
44103;BME280;29769;42.178;24.742;2023-04-07T05:46:42;99581.66;;;7.31;63.65
44103;BME280;29769;42.178;24.742;2023-04-07T05:49:27;99575.47;;;7.41;59.07
44103;BME280;29769;42.178;24.742;2023-04-07T05:52:19;99585.91;;;7.53;57.14
44103;BME280;29769;42.178;24.742;2023-04-07T05:55:11;99584.91;;;7.74;57.61
44103;BME280;29769;42.178;24.742;2023-04-07T05:57:55;99581.34;;;7.87;56.66
44103;BME280;29769;42.178;24.742;2023-04-07T06:00:44;99587.56;;;7.69;51.35
44103;BME280;29769;42.178;24.742;2023-04-07T06:03:32;99587.63;;;7.57;50.49
44103;BME280;29769;42.178;24.742;2023-04-07T06:06:26;99584.16;;;7.58;52.68
44103;BME280;29769;42.178;24.742;2023-04-07T06:09:11;99584.84;;;7.81;53.03
44103;BME280;29769;42.178;24.742;2023-04-07T06:11:56;99585.75;;;7.77;49.72
44103;BME280;29769;42.178;24.742;2023-04-07T06:14:41;99582.69;;;8.45;51.69
44103;BME280;29769;42.178;24.742;2023-04-07T06:17:26;99579.31;;;9.20;48.50
44103;BME280;29769;42.178;24.742;2023-04-07T06:20:11;99590.78;;;9.13;46.29
44103;BME280;29769;42.178;24.742;2023-04-07T06:22:55;99590.25;;;9.57;48.20
44103;BME280;29769;42.178;24.742;2023-04-07T06:25:40;99593.94;;;10.06;44.65
44103;BME280;29769;42.178;24.742;2023-04-07T06:28:25;99583.19;;;9.60;41.41
44103;BME280;29769;42.178;24.742;2023-04-07T06:31:10;99588.28;;;9.72;43.77
44103;BME280;29769;42.178;24.742;2023-04-07T06:33:55;99594.78;;;9.44;43.30
44103;BME280;29769;42.178;24.742;2023-04-07T06:36:40;99589.53;;;9.43;42.54
44103;BME280;29769;42.178;24.742;2023-04-07T06:39:25;99598.44;;;9.98;42.34
44103;BME280;29769;42.178;24.742;2023-04-07T06:42:10;99598.88;;;10.27;40.73
44103;BME280;29769;42.178;24.742;2023-04-07T06:45:06;99601.28;;;10.93;39.90
44103;BME280;29769;42.178;24.742;2023-04-07T06:47:51;99597.88;;;11.34;39.59
44103;BME280;29769;42.178;24.742;2023-04-07T06:50:36;99596.47;;;11.59;37.97
44103;BME280;29769;42.178;24.742;2023-04-07T06:53:21;99597.63;;;11.89;36.51
44103;BME280;29769;42.178;24.742;2023-04-07T06:56:07;99599.69;;;11.75;36.13
44103;BME280;29769;42.178;24.742;2023-04-07T06:58:52;99599.19;;;11.12;36.63
44103;BME280;29769;42.178;24.742;2023-04-07T07:01:37;99604.09;;;11.75;37.56
44103;BME280;29769;42.178;24.742;2023-04-07T07:04:22;99599.03;;;12.41;36.31
44103;BME280;29769;42.178;24.742;2023-04-07T07:07:06;99592.84;;;12.43;35.93
44103;BME280;29769;42.178;24.742;2023-04-07T07:09:52;99590.09;;;12.46;35.97
44103;BME280;29769;42.178;24.742;2023-04-07T07:12:37;99588.72;;;11.52;35.63
44103;BME280;29769;42.178;24.742;2023-04-07T07:15:22;99593.81;;;11.61;36.60
44103;BME280;29769;42.178;24.742;2023-04-07T07:18:06;99597.34;;;12.01;36.16
44103;BME280;29769;42.178;24.742;2023-04-07T07:20:51;99598.31;;;12.70;35.92
44103;BME280;29769;42.178;24.742;2023-04-07T07:23:35;99595.22;;;12.88;35.28
44103;BME280;29769;42.178;24.742;2023-04-07T07:26:20;99600.81;;;12.76;34.24
44103;BME280;29769;42.178;24.742;2023-04-07T07:29:05;99597.34;;;13.08;35.45
44103;BME280;29769;42.178;24.742;2023-04-07T07:31:49;99597.25;;;12.41;35.01
44103;BME280;29769;42.178;24.742;2023-04-07T07:34:34;99601.56;;;12.09;35.75
44103;BME280;29769;42.178;24.742;2023-04-07T07:37:19;99600.00;;;13.06;34.32
44103;BME280;29769;42.178;24.742;2023-04-07T07:40:04;99592.41;;;12.94;33.74
44103;BME280;29769;42.178;24.742;2023-04-07T07:42:49;99597.38;;;13.99;33.54
44103;BME280;29769;42.178;24.742;2023-04-07T07:45:33;99596.41;;;14.57;31.93
44103;BME280;29769;42.178;24.742;2023-04-07T07:48:18;99597.16;;;14.87;32.30
44103;BME280;29769;42.178;24.742;2023-04-07T07:51:03;99588.31;;;14.88;32.27
44103;BME280;29769;42.178;24.742;2023-04-07T07:53:48;99587.31;;;14.90;33.08
44103;BME280;29769;42.178;24.742;2023-04-07T07:56:33;99586.59;;;14.05;31.43
44103;BME280;29769;42.178;24.742;2023-04-07T07:59:18;99589.78;;;14.70;31.50
44103;BME280;29769;42.178;24.742;2023-04-07T08:02:02;99583.66;;;15.44;30.78
44103;BME280;29769;42.178;24.742;2023-04-07T08:04:47;99584.19;;;16.87;29.10
44103;BME280;29769;42.178;24.742;2023-04-07T08:07:31;99573.72;;;18.19;27.48
44103;BME280;29769;42.178;24.742;2023-04-07T08:10:16;99574.38;;;18.06;27.65
44103;BME280;29769;42.178;24.742;2023-04-07T08:13:01;99575.38;;;16.65;28.55
44103;BME280;29769;42.178;24.742;2023-04-07T08:15:46;99576.16;;;16.88;28.87
44103;BME280;29769;42.178;24.742;2023-04-07T08:18:30;99569.06;;;18.60;27.08
44103;BME280;29769;42.178;24.742;2023-04-07T08:21:15;99568.13;;;19.47;25.23
44103;BME280;29769;42.178;24.742;2023-04-07T08:24:00;99559.00;;;19.67;25.39
44103;BME280;29769;42.178;24.742;2023-04-07T08:26:45;99557.91;;;20.95;24.59
44103;BME280;29769;42.178;24.742;2023-04-07T08:29:30;99559.94;;;22.06;22.75
44103;BME280;29769;42.178;24.742;2023-04-07T08:32:14;99559.66;;;21.83;22.23
44103;BME280;29769;42.178;24.742;2023-04-07T08:34:59;99554.81;;;22.57;21.85
44103;BME280;29769;42.178;24.742;2023-04-07T08:37:44;99560.41;;;21.42;22.36
44103;BME280;29769;42.178;24.742;2023-04-07T08:40:29;99557.41;;;20.27;23.46
44103;BME280;29769;42.178;24.742;2023-04-07T08:43:16;99550.03;;;20.78;23.18
44103;BME280;29769;42.178;24.742;2023-04-07T08:46:03;99543.03;;;22.59;21.59
44103;BME280;29769;42.178;24.742;2023-04-07T08:48:49;99542.88;;;24.14;21.06
44103;BME280;29769;42.178;24.742;2023-04-07T08:51:34;99535.25;;;26.05;19.16
44103;BME280;29769;42.178;24.742;2023-04-07T08:54:21;99532.81;;;27.20;18.40
44103;BME280;29769;42.178;24.742;2023-04-07T08:57:07;99536.25;;;26.58;18.96
44103;BME280;29769;42.178;24.742;2023-04-07T08:59:52;99532.72;;;27.82;18.13
44103;BME280;29769;42.178;24.742;2023-04-07T09:02:38;99531.13;;;28.10;17.17
44103;BME280;29769;42.178;24.742;2023-04-07T09:05:24;99532.47;;;29.50;17.04
44103;BME280;29769;42.178;24.742;2023-04-07T09:08:09;99530.53;;;30.16;16.47
44103;BME280;29769;42.178;24.742;2023-04-07T09:10:55;99528.97;;;30.14;15.67
44103;BME280;29769;42.178;24.742;2023-04-07T09:13:40;99534.84;;;25.32;18.67
44103;BME280;29769;42.178;24.742;2023-04-07T09:16:24;99523.63;;;24.68;18.98
44103;BME280;29769;42.178;24.742;2023-04-07T09:19:12;99540.97;;;24.04;19.55
44103;BME280;29769;42.178;24.742;2023-04-07T09:21:57;99537.13;;;25.93;19.47
44103;BME280;29769;42.178;24.742;2023-04-07T09:24:41;99531.75;;;27.11;17.60
44103;BME280;29769;42.178;24.742;2023-04-07T09:27:26;99525.25;;;28.05;16.92
44103;BME280;29769;42.178;24.742;2023-04-07T09:30:12;99528.09;;;28.62;17.13
44103;BME280;29769;42.178;24.742;2023-04-07T09:33:00;99525.13;;;29.79;16.02
44103;BME280;29769;42.178;24.742;2023-04-07T09:35:51;99525.78;;;29.91;15.82
44103;BME280;29769;42.178;24.742;2023-04-07T09:38:37;99521.09;;;29.27;15.83
44103;BME280;29769;42.178;24.742;2023-04-07T09:41:22;99508.44;;;27.92;16.60
44103;BME280;29769;42.178;24.742;2023-04-07T09:44:11;99510.44;;;29.16;16.11
44103;BME280;29769;42.178;24.742;2023-04-07T09:46:56;99509.91;;;30.51;15.31
44103;BME280;29769;42.178;24.742;2023-04-07T09:49:48;99510.88;;;30.85;15.08
44103;BME280;29769;42.178;24.742;2023-04-07T09:53:07;99511.50;;;31.14;15.21
44103;BME280;29769;42.178;24.742;2023-04-07T09:55:46;99510.13;;;31.36;14.90
44103;BME280;29769;42.178;24.742;2023-04-07T09:58:31;99506.44;;;30.03;15.07
44103;BME280;29769;42.178;24.742;2023-04-07T10:01:16;99507.88;;;29.34;15.65
44103;BME280;29769;42.178;24.742;2023-04-07T10:04:01;99521.13;;;29.74;16.00
44103;BME280;29769;42.178;24.742;2023-04-07T10:06:47;99512.06;;;30.47;15.27
44103;BME280;29769;42.178;24.742;2023-04-07T10:09:31;99506.31;;;30.85;15.25
44103;BME280;29769;42.178;24.742;2023-04-07T10:12:16;99508.94;;;27.66;16.90
44103;BME280;29769;42.178;24.742;2023-04-07T10:15:01;99515.31;;;28.74;16.17
44103;BME280;29769;42.178;24.742;2023-04-07T10:17:46;99501.16;;;29.18;16.34
44103;BME280;29769;42.178;24.742;2023-04-07T10:20:35;99503.47;;;30.24;15.61
44103;BME280;29769;42.178;24.742;2023-04-07T10:26:27;99512.31;;;28.08;16.83
44103;BME280;29769;42.178;24.742;2023-04-07T10:29:16;99508.94;;;26.83;17.81
44103;BME280;29769;42.178;24.742;2023-04-07T10:32:01;99510.28;;;27.10;17.62
44103;BME280;29769;42.178;24.742;2023-04-07T10:34:54;99504.94;;;26.98;17.39
44103;BME280;29769;42.178;24.742;2023-04-07T10:37:44;99509.44;;;27.30;17.22
44103;BME280;29769;42.178;24.742;2023-04-07T10:40:45;99507.72;;;28.68;16.44
44103;BME280;29769;42.178;24.742;2023-04-07T10:43:37;99503.50;;;29.87;15.64
44103;BME280;29769;42.178;24.742;2023-04-07T10:46:23;99509.06;;;29.58;15.84
44103;BME280;29769;42.178;24.742;2023-04-07T10:49:08;99496.34;;;28.55;16.60
44103;BME280;29769;42.178;24.742;2023-04-07T10:55:42;99516.69;;;25.57;18.79
44103;BME280;29769;42.178;24.742;2023-04-07T11:03:55;99504.75;;;25.38;18.81
44103;BME280;29769;42.178;24.742;2023-04-07T11:06:46;99499.41;;;27.21;17.59
44103;BME280;29769;42.178;24.742;2023-04-07T11:09:34;99497.41;;;25.95;18.56
44103;BME280;29769;42.178;24.742;2023-04-07T11:12:22;99494.25;;;25.35;19.51
44103;BME280;29769;42.178;24.742;2023-04-07T11:15:19;99483.16;;;26.90;18.68
44103;BME280;29769;42.178;24.742;2023-04-07T11:18:06;99489.34;;;28.23;17.54
44103;BME280;29769;42.178;24.742;2023-04-07T11:20:51;99483.53;;;28.57;17.48
44103;BME280;29769;42.178;24.742;2023-04-07T11:23:37;99493.91;;;27.83;17.70
44103;BME280;29769;42.178;24.742;2023-04-07T11:26:22;99497.53;;;25.16;19.28
44103;BME280;29769;42.178;24.742;2023-04-07T11:29:07;99482.84;;;25.20;19.57
44103;BME280;29769;42.178;24.742;2023-04-07T11:31:52;99487.13;;;22.80;21.54
44103;BME280;29769;42.178;24.742;2023-04-07T11:34:37;99491.69;;;24.28;20.48
44103;BME280;29769;42.178;24.742;2023-04-07T11:37:23;99482.75;;;24.87;19.81
44103;BME280;29769;42.178;24.742;2023-04-07T11:40:09;99498.16;;;25.42;19.65
44103;BME280;29769;42.178;24.742;2023-04-07T11:42:55;99481.38;;;26.48;18.60
44103;BME280;29769;42.178;24.742;2023-04-07T11:45:40;99477.94;;;27.19;18.78
44103;BME280;29769;42.178;24.742;2023-04-07T11:48:31;99463.84;;;26.95;18.24
44103;BME280;29769;42.178;24.742;2023-04-07T11:51:17;99482.38;;;24.09;20.22
44103;BME280;29769;42.178;24.742;2023-04-07T11:54:02;99477.31;;;24.41;20.16
44103;BME280;29769;42.178;24.742;2023-04-07T11:56:47;99476.34;;;24.18;21.16
44103;BME280;29769;42.178;24.742;2023-04-07T11:59:32;99476.50;;;25.43;20.77
44103;BME280;29769;42.178;24.742;2023-04-07T12:02:32;99472.00;;;26.84;19.05
44103;BME280;29769;42.178;24.742;2023-04-07T12:05:17;99471.72;;;27.49;18.64
44103;BME280;29769;42.178;24.742;2023-04-07T12:08:01;99475.50;;;26.95;18.70
44103;BME280;29769;42.178;24.742;2023-04-07T12:10:46;99470.13;;;27.77;18.16
44103;BME280;29769;42.178;24.742;2023-04-07T12:13:30;99472.75;;;27.98;17.97
44103;BME280;29769;42.178;24.742;2023-04-07T12:16:14;99470.97;;;28.94;17.31
44103;BME280;29769;42.178;24.742;2023-04-07T12:18:59;99471.03;;;28.75;17.84
44103;BME280;29769;42.178;24.742;2023-04-07T12:21:44;99476.22;;;29.34;17.79
44103;BME280;29769;42.178;24.742;2023-04-07T12:24:29;99471.94;;;29.32;16.67
44103;BME280;29769;42.178;24.742;2023-04-07T12:27:15;99472.09;;;26.93;18.78
44103;BME280;29769;42.178;24.742;2023-04-07T12:30:00;99470.28;;;26.19;19.19
44103;BME280;29769;42.178;24.742;2023-04-07T12:32:45;99464.63;;;26.65;18.87
44103;BME280;29769;42.178;24.742;2023-04-07T12:35:30;99461.03;;;27.48;18.00
44103;BME280;29769;42.178;24.742;2023-04-07T12:38:14;99466.00;;;27.82;18.70
44103;BME280;29769;42.178;24.742;2023-04-07T12:40:59;99464.16;;;28.52;17.42
44103;BME280;29769;42.178;24.742;2023-04-07T12:43:46;99461.56;;;26.59;19.06
44103;BME280;29769;42.178;24.742;2023-04-07T12:46:31;99471.69;;;25.02;20.22
44103;BME280;29769;42.178;24.742;2023-04-07T12:49:16;99471.72;;;25.47;19.79
44103;BME280;29769;42.178;24.742;2023-04-07T12:52:01;99467.94;;;24.22;20.85
44103;BME280;29769;42.178;24.742;2023-04-07T12:54:46;99464.63;;;24.19;21.07
44103;BME280;29769;42.178;24.742;2023-04-07T12:57:31;99467.13;;;24.92;20.52
44103;BME280;29769;42.178;24.742;2023-04-07T13:00:16;99461.72;;;26.14;19.88
44103;BME280;29769;42.178;24.742;2023-04-07T13:03:01;99466.31;;;23.96;21.27
44103;BME280;29769;42.178;24.742;2023-04-07T13:05:46;99462.38;;;23.89;22.10
44103;BME280;29769;42.178;24.742;2023-04-07T13:08:31;99460.06;;;25.02;20.99
44103;BME280;29769;42.178;24.742;2023-04-07T13:11:16;99448.56;;;26.64;19.20
44103;BME280;29769;42.178;24.742;2023-04-07T13:14:00;99453.44;;;26.70;19.55
44103;BME280;29769;42.178;24.742;2023-04-07T13:16:45;99458.03;;;23.50;22.03
44103;BME280;29769;42.178;24.742;2023-04-07T13:19:31;99457.69;;;22.66;22.76
44103;BME280;29769;42.178;24.742;2023-04-07T13:22:15;99451.91;;;23.61;23.03
44103;BME280;29769;42.178;24.742;2023-04-07T13:25:01;99449.59;;;23.80;22.82
44103;BME280;29769;42.178;24.742;2023-04-07T13:27:45;99456.75;;;23.92;22.58
44103;BME280;29769;42.178;24.742;2023-04-07T13:30:30;99461.50;;;23.52;23.09
44103;BME280;29769;42.178;24.742;2023-04-07T13:33:15;99450.44;;;24.17;22.91
44103;BME280;29769;42.178;24.742;2023-04-07T13:35:59;99456.53;;;23.08;24.00
44103;BME280;29769;42.178;24.742;2023-04-07T13:38:44;99456.66;;;23.32;24.74
44103;BME280;29769;42.178;24.742;2023-04-07T13:41:29;99449.59;;;24.04;23.15
44103;BME280;29769;42.178;24.742;2023-04-07T13:44:13;99448.41;;;24.08;23.20
44103;BME280;29769;42.178;24.742;2023-04-07T13:46:58;99456.06;;;21.28;25.47
44103;BME280;29769;42.178;24.742;2023-04-07T13:49:44;99449.66;;;20.13;27.23
44103;BME280;29769;42.178;24.742;2023-04-07T13:52:29;99456.91;;;20.56;28.18
44103;BME280;29769;42.178;24.742;2023-04-07T13:55:16;99454.44;;;19.76;27.86
44103;BME280;29769;42.178;24.742;2023-04-07T13:58:03;99457.28;;;19.73;28.48
44103;BME280;29769;42.178;24.742;2023-04-07T14:00:47;99459.69;;;19.93;28.58
44103;BME280;29769;42.178;24.742;2023-04-07T14:03:32;99458.22;;;20.93;27.99
44103;BME280;29769;42.178;24.742;2023-04-07T14:06:16;99447.78;;;20.74;28.13
44103;BME280;29769;42.178;24.742;2023-04-07T14:09:01;99448.16;;;20.68;27.65
44103;BME280;29769;42.178;24.742;2023-04-07T14:11:46;99464.75;;;18.85;30.15
44103;BME280;29769;42.178;24.742;2023-04-07T14:14:31;99462.63;;;19.25;30.34
44103;BME280;29769;42.178;24.742;2023-04-07T14:17:16;99465.19;;;19.43;30.51
44103;BME280;29769;42.178;24.742;2023-04-07T14:20:01;99461.78;;;19.24;30.59
44103;BME280;29769;42.178;24.742;2023-04-07T14:22:46;99465.88;;;18.11;31.78
44103;BME280;29769;42.178;24.742;2023-04-07T14:25:33;99470.81;;;17.83;32.18
44103;BME280;29769;42.178;24.742;2023-04-07T14:28:17;99476.31;;;18.50;31.96
44103;BME280;29769;42.178;24.742;2023-04-07T14:31:02;99465.28;;;17.87;32.10
44103;BME280;29769;42.178;24.742;2023-04-07T14:33:47;99474.69;;;17.57;32.75
44103;BME280;29769;42.178;24.742;2023-04-07T14:36:33;99476.03;;;17.67;33.14
44103;BME280;29769;42.178;24.742;2023-04-07T14:39:17;99478.44;;;17.53;33.06
44103;BME280;29769;42.178;24.742;2023-04-07T14:42:03;99484.50;;;16.99;34.08
44103;BME280;29769;42.178;24.742;2023-04-07T14:44:48;99485.94;;;17.06;33.91
44103;BME280;29769;42.178;24.742;2023-04-07T14:47:32;99495.25;;;17.34;33.19
44103;BME280;29769;42.178;24.742;2023-04-07T14:50:17;99500.06;;;17.45;34.06
44103;BME280;29769;42.178;24.742;2023-04-07T14:53:02;99491.13;;;17.85;33.40
44103;BME280;29769;42.178;24.742;2023-04-07T14:55:46;99488.91;;;17.76;33.63
44103;BME280;29769;42.178;24.742;2023-04-07T14:58:31;99486.06;;;17.03;34.31